createdAt,value
2018-06-03T00:00:00.361Z,1006.62
2018-06-03T00:01:00.317Z,1006.98
2018-06-03T00:02:00.395Z,1006.46
2018-06-03T00:03:00.367Z,1006.57
2018-06-03T00:04:00.329Z,1006.7
2018-06-03T00:05:00.312Z,1006.76
2018-06-03T00:06:00.364Z,1006.76
2018-06-03T00:07:00.356Z,1006.67
2018-06-03T00:08:00.343Z,1006.66
2018-06-03T00:09:00.342Z,1006.76
2018-06-03T00:10:00.362Z,1006.84
2018-06-03T00:11:00.419Z,1007.12
2018-06-03T00:12:00.361Z,1007.3
2018-06-03T00:13:00.351Z,1006.9
2018-06-03T00:14:00.363Z,1007.11
2018-06-03T00:15:00.347Z,1007.15
2018-06-03T00:16:00.396Z,1007.22
2018-06-03T00:17:00.375Z,1007.39
2018-06-03T00:18:00.363Z,1007.29
2018-06-03T00:19:00.373Z,1007.44
2018-06-03T00:20:00.380Z,1007.71
2018-06-03T00:21:00.390Z,1007.25
2018-06-03T00:22:00.371Z,1007.3
2018-06-03T00:23:00.397Z,1007.11
2018-06-03T00:24:00.369Z,1007.02
2018-06-03T00:25:00.354Z,1007.37
2018-06-03T00:26:00.377Z,1007.21
2018-06-03T00:27:00.409Z,1007.17
2018-06-03T00:28:00.356Z,1006.93
2018-06-03T00:29:00.357Z,1007.08
2018-06-03T00:30:00.426Z,1007.21
2018-06-03T00:31:00.391Z,1007.14
2018-06-03T00:32:00.406Z,1007.05
2018-06-03T00:33:00.400Z,1007.34
2018-06-03T00:34:00.393Z,1007.27
2018-06-03T00:35:00.422Z,1007.39
2018-06-03T00:36:00.436Z,1007.33
2018-06-03T00:37:00.428Z,1007.09
2018-06-03T00:41:29.593Z,1007.37
2018-06-03T00:42:29.628Z,1007.37
2018-06-03T00:43:29.650Z,1007.28
2018-06-03T00:44:29.602Z,1007.28
2018-06-03T00:45:29.622Z,1007.21
2018-06-03T00:46:29.629Z,1007.6
2018-06-03T00:47:29.614Z,1007.29
2018-06-03T00:48:29.617Z,1007.18
2018-06-03T00:49:29.624Z,1006.99
2018-06-03T00:50:29.611Z,1007.1
2018-06-03T00:51:29.603Z,1007.26
2018-06-03T00:52:29.648Z,1007.36
2018-06-03T00:53:29.627Z,1007.49
2018-06-03T00:54:29.655Z,1007.54
2018-06-03T00:55:29.627Z,1007.9
2018-06-03T00:56:29.597Z,1007.63
2018-06-03T00:57:29.628Z,1007.66
2018-06-03T00:58:29.670Z,1007.71
2018-06-03T00:59:29.703Z,1007.56
2018-06-03T01:00:29.668Z,1007.9
2018-06-03T01:01:29.683Z,1007.52
2018-06-03T01:02:29.644Z,1007.36
2018-06-03T01:03:29.624Z,1007.44
2018-06-03T01:04:29.668Z,1007.58
2018-06-03T01:05:29.664Z,1007.47
2018-06-03T01:06:29.708Z,1007.17
2018-06-03T01:07:29.664Z,1007.52
2018-06-03T01:08:29.685Z,1007.09
2018-06-03T01:09:29.681Z,1007.47
2018-06-03T01:10:29.690Z,1007.63
2018-06-03T01:11:29.686Z,1007.79
2018-06-03T01:12:29.727Z,1007.49
2018-06-03T01:13:29.677Z,1007.7
2018-06-03T01:14:29.684Z,1007.77
2018-06-03T01:15:29.689Z,1007.77
2018-06-03T01:16:29.666Z,1007.88
2018-06-03T01:17:29.674Z,1007.81
2018-06-03T01:18:29.679Z,1008.03
2018-06-03T01:19:29.684Z,1008.32
2018-06-03T01:20:29.724Z,1008.33
2018-06-03T01:21:29.670Z,1007.79
2018-06-03T01:22:29.679Z,1008.26
2018-06-03T01:23:29.694Z,1008.52
2018-06-03T01:24:29.669Z,1008.23
2018-06-03T01:25:29.704Z,1008.35
2018-06-03T01:26:29.683Z,1008.09
2018-06-03T01:27:29.695Z,1008.6
2018-06-03T01:28:29.724Z,1008.44
2018-06-03T01:29:29.712Z,1008.46
2018-06-03T01:30:29.673Z,1008.61
2018-06-03T01:31:29.676Z,1008.84
2018-06-03T01:32:29.709Z,1009.1
2018-06-03T01:33:29.705Z,1008.73
2018-06-03T01:34:29.743Z,1008.82
2018-06-03T01:35:29.694Z,1009.06
2018-06-03T01:36:29.775Z,1008.88
2018-06-03T01:37:29.696Z,1008.95
2018-06-03T01:38:29.686Z,1009.19
2018-06-03T01:39:29.686Z,1009.1
2018-06-03T01:40:29.727Z,1009.11
2018-06-03T01:41:29.731Z,1009.13
2018-06-03T01:42:29.728Z,1009.32
2018-06-03T01:43:29.716Z,1009.37
2018-06-03T01:44:29.722Z,1009.1
2018-06-03T01:45:29.734Z,1009.3
2018-06-03T01:46:29.746Z,1009.24
2018-06-03T01:47:29.795Z,1009.45
2018-06-03T01:48:29.719Z,1009.27
2018-06-03T01:49:29.753Z,1009.16
2018-06-03T01:50:29.745Z,1009.48
2018-06-03T01:51:29.724Z,1009.23
2018-06-03T01:52:29.761Z,1009.46
2018-06-03T01:53:29.781Z,1009.54
2018-06-03T01:54:29.790Z,1009.57
2018-06-03T01:55:29.746Z,1009.49
2018-06-03T01:56:29.773Z,1009.6
2018-06-03T01:57:29.722Z,1009.86
2018-06-03T01:58:29.735Z,1009.72
2018-06-03T01:59:29.796Z,1009.9
2018-06-03T02:00:29.782Z,1009.8
2018-06-03T02:01:29.783Z,1009.87
2018-06-03T02:02:29.768Z,1009.72
2018-06-03T02:03:29.776Z,1009.79
2018-06-03T02:04:29.772Z,1010.1
2018-06-03T02:05:29.783Z,1009.97
2018-06-03T02:06:29.787Z,1009.87
2018-06-03T02:07:29.828Z,1010.25
2018-06-03T02:08:29.792Z,1010.09
2018-06-03T02:09:29.762Z,1010.26
2018-06-03T02:10:29.793Z,1010.27
2018-06-03T02:11:29.805Z,1010.17
2018-06-03T02:12:29.774Z,1010.06
2018-06-03T02:13:29.809Z,1010.36
2018-06-03T02:14:29.789Z,1010.24
2018-06-03T02:15:29.794Z,1010.08
2018-06-03T02:16:29.801Z,1010.49
2018-06-03T02:17:29.792Z,1010.41
2018-06-03T02:18:29.801Z,1010.32
2018-06-03T02:19:29.766Z,1010.55
2018-06-03T02:20:29.805Z,1010.29
2018-06-03T02:21:29.794Z,1010.45
2018-06-03T02:22:29.867Z,1010.47
2018-06-03T02:23:29.783Z,1010.36
2018-06-03T02:24:29.835Z,1010.64
2018-06-03T02:25:29.794Z,1010.79
2018-06-03T02:26:29.806Z,1010.49
2018-06-03T02:27:29.827Z,1010.65
2018-06-03T02:28:29.814Z,1010.67
2018-06-03T02:29:29.796Z,1010.75
2018-06-03T02:30:29.798Z,1010.78
2018-06-03T02:31:29.823Z,1010.66
2018-06-03T02:32:29.805Z,1010.76
2018-06-03T02:33:29.812Z,1010.4
2018-06-03T02:34:29.806Z,1010.46
2018-06-03T02:35:29.802Z,1010.9
2018-06-03T02:36:29.836Z,1010.56
2018-06-03T02:37:29.815Z,1010.9
2018-06-03T02:38:29.848Z,1010.66
2018-06-03T02:39:29.855Z,1010.75
2018-06-03T02:40:29.844Z,1010.84
2018-06-03T02:41:29.839Z,1010.62
2018-06-03T02:42:29.847Z,1010.47
2018-06-03T02:43:29.819Z,1010.72
2018-06-03T02:44:29.810Z,1010.57
2018-06-03T02:45:29.835Z,1010.76
2018-06-03T02:46:29.846Z,1010.55
2018-06-03T02:47:30.016Z,1010.64
2018-06-03T02:48:29.860Z,1010.48
2018-06-03T02:49:29.821Z,1010.65
2018-06-03T02:50:29.866Z,1010.63
2018-06-03T02:51:29.828Z,1010.72
2018-06-03T02:52:29.866Z,1010.78
2018-06-03T02:53:29.836Z,1010.74
2018-06-03T02:54:29.880Z,1010.91
2018-06-03T02:55:30.853Z,1010.65
2018-06-03T02:56:29.839Z,1011
2018-06-03T02:57:29.871Z,1010.66
2018-06-03T02:58:29.858Z,1010.73
2018-06-03T02:59:29.881Z,1010.48
2018-06-03T03:00:29.927Z,1010.47
2018-06-03T03:01:29.843Z,1010.74
2018-06-03T03:02:29.883Z,1010.65
2018-06-03T03:03:29.870Z,1010.57
2018-06-03T03:04:29.868Z,1010.81
2018-06-03T03:05:29.978Z,1010.62
2018-06-03T03:06:29.846Z,1010.69
2018-06-03T03:07:29.873Z,1010.73
2018-06-03T03:08:29.890Z,1011.07
2018-06-03T03:09:29.966Z,1010.91
2018-06-03T03:10:29.873Z,1011.13
2018-06-03T03:11:29.890Z,1011.26
2018-06-03T03:12:29.946Z,1011.04
2018-06-03T03:13:29.893Z,1011.22
2018-06-03T03:14:29.900Z,1011.25
2018-06-03T03:15:29.930Z,1011.32
2018-06-03T03:16:29.923Z,1011.11
2018-06-03T03:17:29.894Z,1011.33
2018-06-03T03:18:29.900Z,1011.36
2018-06-03T03:19:29.926Z,1011.19
2018-06-03T03:20:29.937Z,1011.19
2018-06-03T03:21:29.897Z,1011.1
2018-06-03T03:22:29.907Z,1011.29
2018-06-03T03:23:29.911Z,1011.41
2018-06-03T03:24:29.918Z,1011.46
2018-06-03T03:25:29.924Z,1011.34
2018-06-03T03:26:29.899Z,1011.32
2018-06-03T03:27:29.886Z,1011.37
2018-06-03T03:28:29.941Z,1011.24
2018-06-03T03:29:29.923Z,1011.42
2018-06-03T03:30:29.979Z,1011.36
2018-06-03T03:31:29.945Z,1011.35
2018-06-03T03:32:29.914Z,1011.71
2018-06-03T03:33:29.898Z,1011.37
2018-06-03T03:34:29.926Z,1011.29
2018-06-03T03:35:29.968Z,1011.29
2018-06-03T03:36:29.939Z,1011.29
2018-06-03T03:37:29.919Z,1011.32
2018-06-03T03:38:29.936Z,1011.27
2018-06-03T03:39:29.946Z,1011.32
2018-06-03T03:40:29.944Z,1011.62
2018-06-03T03:41:29.923Z,1011.64
2018-06-03T03:42:29.945Z,1011.48
2018-06-03T03:43:29.910Z,1011.61
2018-06-03T03:44:29.917Z,1011.71
2018-06-03T03:45:30.462Z,1012.01
2018-06-03T03:47:29.942Z,1011.97
2018-06-03T03:48:29.970Z,1012.26
2018-06-03T03:49:29.955Z,1012.28
2018-06-03T03:50:35.956Z,1012.52
2018-06-03T03:51:29.939Z,1012.68
2018-06-03T03:52:29.965Z,1012.01
2018-06-03T03:53:30.002Z,1012.24
2018-06-03T03:54:29.932Z,1012.55
2018-06-03T03:55:30.004Z,1012.16
2018-06-03T03:56:39.938Z,1012.43
2018-06-03T03:57:30.032Z,1012.15
2018-06-03T03:58:29.978Z,1012.26
2018-06-03T03:59:29.962Z,1012.35
2018-06-03T04:00:29.998Z,1012.47
2018-06-03T04:01:29.978Z,1012.46
2018-06-03T04:02:29.989Z,1012.26
2018-06-03T04:03:30.001Z,1012.33
2018-06-03T04:04:29.975Z,1012.29
2018-06-03T04:05:30.003Z,1012.41
2018-06-03T04:07:48.730Z,1012.59
2018-06-03T04:08:48.707Z,1012.76
2018-06-03T04:09:48.688Z,1012.41
2018-06-03T04:10:48.710Z,1012.4
2018-06-03T04:11:48.711Z,1012.29
2018-06-03T04:12:48.743Z,1012.68
2018-06-03T04:13:48.722Z,1012.75
2018-06-03T04:14:48.726Z,1012.51
2018-06-03T04:15:48.721Z,1012.41
2018-06-03T04:16:48.759Z,1012.66
2018-06-03T04:17:48.716Z,1012.59
2018-06-03T04:18:48.757Z,1012.42
2018-06-03T04:19:48.732Z,1012.59
2018-06-03T04:20:48.736Z,1012.67
2018-06-03T04:21:48.774Z,1012.71
2018-06-03T04:22:48.727Z,1012.35
2018-06-03T04:23:48.736Z,1012.71
2018-06-03T04:24:48.788Z,1012.59
2018-06-03T04:29:17.855Z,1012.42
2018-06-03T04:30:17.775Z,1012.58
2018-06-03T04:31:17.772Z,1012.61
2018-06-03T04:32:17.765Z,1012.91
2018-06-03T04:33:17.818Z,1012.73
2018-06-03T04:34:17.774Z,1012.57
2018-06-03T04:35:17.817Z,1012.31
2018-06-03T04:36:17.800Z,1012.35
2018-06-03T04:37:17.743Z,1012.5
2018-06-03T04:38:17.770Z,1012.45
2018-06-03T04:39:17.757Z,1012.45
2018-06-03T04:40:17.764Z,1012.2
2018-06-03T04:41:17.766Z,1012.22
2018-06-03T04:42:17.780Z,1012.41
2018-06-03T04:43:17.789Z,1012.12
2018-06-03T04:44:17.760Z,1012.58
2018-06-03T04:45:17.800Z,1012.22
2018-06-03T04:46:17.771Z,1012.31
2018-06-03T04:47:17.766Z,1012.28
2018-06-03T04:48:17.787Z,1012.37
2018-06-03T04:49:17.779Z,1012.05
2018-06-03T04:50:17.776Z,1012.32
2018-06-03T04:51:17.797Z,1012.44
2018-06-03T04:52:17.804Z,1012.19
2018-06-03T04:53:17.797Z,1012.26
2018-06-03T04:54:17.811Z,1012.1
2018-06-03T04:55:17.812Z,1012.31
2018-06-03T04:56:17.838Z,1012.26
2018-06-03T04:57:17.872Z,1012.59
2018-06-03T04:58:17.791Z,1012.41
2018-06-03T04:59:17.784Z,1012.24
2018-06-03T05:00:17.815Z,1012.34
2018-06-03T05:01:17.846Z,1012.33
2018-06-03T05:02:17.831Z,1012.25
2018-06-03T05:03:17.814Z,1012.19
2018-06-03T05:04:17.816Z,1012.12
2018-06-03T05:05:17.833Z,1011.94
2018-06-03T05:06:17.819Z,1012.11
2018-06-03T05:07:17.828Z,1012.22
2018-06-03T05:08:17.837Z,1012.08
2018-06-03T05:09:17.820Z,1011.98
2018-06-03T05:10:17.804Z,1012.19
2018-06-03T05:11:17.839Z,1011.84
2018-06-03T05:12:17.817Z,1012.04
2018-06-03T05:13:17.800Z,1011.85
2018-06-03T05:14:17.871Z,1011.93
2018-06-03T05:15:17.840Z,1011.7
2018-06-03T05:16:17.844Z,1012.05
2018-06-03T05:17:17.849Z,1011.99
2018-06-03T05:18:17.820Z,1011.88
2018-06-03T05:19:17.831Z,1011.84
2018-06-03T05:20:17.869Z,1011.98
2018-06-03T05:21:17.882Z,1011.79
2018-06-03T05:22:17.840Z,1011.72
2018-06-03T05:23:17.834Z,1011.73
2018-06-03T05:24:17.816Z,1011.81
2018-06-03T05:25:17.853Z,1011.55
2018-06-03T05:26:17.879Z,1011.54
2018-06-03T05:27:17.843Z,1011.69
2018-06-03T05:28:17.840Z,1011.48
2018-06-03T05:29:17.868Z,1011.41
2018-06-03T05:30:17.876Z,1011.39
2018-06-03T05:31:17.841Z,1011.24
2018-06-03T05:32:17.877Z,1011.28
2018-06-03T05:33:17.878Z,1011.19
2018-06-03T05:34:17.863Z,1011.31
2018-06-03T05:35:17.833Z,1010.94
2018-06-03T05:36:17.898Z,1011.05
2018-06-03T05:37:17.840Z,1011.01
2018-06-03T05:38:17.887Z,1011.02
2018-06-03T05:39:17.890Z,1011.15
2018-06-03T05:40:17.841Z,1010.9
2018-06-03T05:41:17.852Z,1011.21
2018-06-03T05:42:17.861Z,1011.1
2018-06-03T05:43:17.886Z,1010.82
2018-06-03T05:44:17.879Z,1010.83
2018-06-03T05:45:17.861Z,1010.65
2018-06-03T05:46:17.877Z,1010.76
2018-06-03T05:47:17.866Z,1010.84
2018-06-03T05:48:17.853Z,1010.76
2018-06-03T05:49:17.883Z,1010.52
2018-06-03T05:50:17.905Z,1010.38
2018-06-03T05:51:17.948Z,1010.65
2018-06-03T05:52:17.902Z,1010.47
2018-06-03T05:53:17.882Z,1010.27
2018-06-03T05:54:17.871Z,1010.38
2018-06-03T05:55:17.916Z,1010.41
2018-06-03T05:56:17.908Z,1010.41
2018-06-03T05:57:17.871Z,1010.36
2018-06-03T05:58:17.913Z,1010.19
2018-06-03T05:59:17.885Z,1010.03
2018-06-03T06:00:17.891Z,1009.77
2018-06-03T06:04:46.677Z,1009.69
2018-06-03T06:05:46.699Z,1009.37
2018-06-03T06:06:46.658Z,1009.32
2018-06-03T06:07:46.653Z,1008.96
2018-06-03T06:08:46.680Z,1009.31
2018-06-03T06:09:46.760Z,1009.37
2018-06-03T06:10:46.661Z,1008.97
2018-06-03T06:11:46.657Z,1008.79
2018-06-03T06:12:46.660Z,1008.86
2018-06-03T06:13:46.673Z,1008.59
2018-06-03T06:14:46.675Z,1008.52
2018-06-03T06:15:46.664Z,1008.26
2018-06-03T06:16:46.665Z,1008.43
2018-06-03T06:17:46.673Z,1008.42
2018-06-03T06:18:46.713Z,1008.06
2018-06-03T06:19:46.694Z,1008.17
2018-06-03T06:20:46.701Z,1008.11
2018-06-03T06:21:46.689Z,1008.49
2018-06-03T06:22:46.728Z,1008.57
2018-06-03T06:23:46.715Z,1009.59
2018-06-03T06:24:46.722Z,1008.8
2018-06-03T06:25:46.706Z,1008.9
2018-06-03T06:26:46.718Z,1008.7
2018-06-03T06:27:46.679Z,1008.51
2018-06-03T06:28:46.702Z,1008.32
2018-06-03T06:29:46.680Z,1008.25
2018-06-03T06:30:46.707Z,1008.58
2018-06-03T06:31:46.745Z,1008.35
2018-06-03T06:32:46.910Z,1008.17
2018-06-03T06:33:46.705Z,1007.91
2018-06-03T06:34:46.797Z,1007.55
2018-06-03T06:35:46.689Z,1007.73
2018-06-03T06:36:46.697Z,1007.28
2018-06-03T06:37:46.696Z,1007.38
2018-06-03T06:38:46.723Z,1007.18
2018-06-03T06:39:46.734Z,1007.01
2018-06-03T06:40:46.740Z,1007
2018-06-03T06:41:56.794Z,1007.11
2018-06-03T06:42:46.708Z,1007.36
2018-06-03T06:43:46.704Z,1007.17
2018-06-03T06:44:46.767Z,1007.11
2018-06-03T06:45:46.713Z,1007.2
2018-06-03T06:46:46.772Z,1007.36
2018-06-03T06:47:46.733Z,1007.14
2018-06-03T06:48:46.724Z,1007.07
2018-06-03T06:49:46.712Z,1006.8
2018-06-03T06:50:46.729Z,1007.04
2018-06-03T06:51:47.133Z,1007.08
2018-06-03T06:52:46.782Z,1006.95
2018-06-03T06:53:46.763Z,1006.94
2018-06-03T06:54:46.752Z,1006.69
2018-06-03T06:55:46.749Z,1006.58
2018-06-03T06:56:46.761Z,1006.69
2018-06-03T06:57:46.766Z,1006.13
2018-06-03T06:58:46.759Z,1006.45
2018-06-03T06:59:46.776Z,1006.27
2018-06-03T07:00:46.762Z,1006.05
2018-06-03T07:01:46.749Z,1006.61
2018-06-03T07:02:46.800Z,1006.12
2018-06-03T07:03:46.771Z,1006.1
2018-06-03T07:04:46.773Z,1005.94
2018-06-03T07:05:46.786Z,1005.94
2018-06-03T07:06:46.793Z,1005.92
2018-06-03T07:07:46.773Z,1005.72
2018-06-03T07:08:46.793Z,1005.9
2018-06-03T07:09:46.784Z,1005.47
2018-06-03T07:10:46.796Z,1005.73
2018-06-03T07:11:46.775Z,1005.66
2018-06-03T07:12:46.808Z,1005.26
2018-06-03T07:13:46.791Z,1005.17
2018-06-03T07:14:46.788Z,1005.46
2018-06-03T07:15:46.793Z,1005.39
2018-06-03T07:16:46.812Z,1005.66
2018-06-03T07:17:46.782Z,1005.41
2018-06-03T07:18:46.790Z,1005.57
2018-06-03T07:19:46.835Z,1005.3
2018-06-03T07:20:46.795Z,1005.16
2018-06-03T07:21:46.845Z,1005.27
2018-06-03T07:22:46.835Z,1005.25
2018-06-03T07:23:46.805Z,1004.99
2018-06-03T07:24:46.809Z,1005.3
2018-06-03T07:25:46.821Z,1005.02
2018-06-03T07:26:46.803Z,1005.1
2018-06-03T07:27:46.811Z,1004.7
2018-06-03T07:28:46.815Z,1004.68
2018-06-03T07:29:46.875Z,1005.07
2018-06-03T07:30:46.824Z,1005.14
2018-06-03T07:31:46.852Z,1004.94
2018-06-03T07:32:46.815Z,1004.71
2018-06-03T07:33:46.902Z,1004.88
2018-06-03T07:34:46.858Z,1004.67
2018-06-03T07:35:46.819Z,1004.71
2018-06-03T07:36:46.845Z,1004.74
2018-06-03T07:37:46.850Z,1004.64
2018-06-03T07:38:46.859Z,1004.72
2018-06-03T07:39:46.848Z,1004.73
2018-06-03T07:40:46.833Z,1004.3
2018-06-03T07:41:46.826Z,1004.45
2018-06-03T07:42:46.816Z,1004.35
2018-06-03T07:43:46.840Z,1004.7
2018-06-03T07:44:46.859Z,1004.43
2018-06-03T07:45:46.837Z,1004.41
2018-06-03T07:46:46.864Z,1004.49
2018-06-03T07:47:46.836Z,1004.48
2018-06-03T07:48:46.844Z,1004.33
2018-06-03T07:49:46.875Z,1004.34
2018-06-03T07:50:46.840Z,1004.44
2018-06-03T07:51:46.839Z,1004.32
2018-06-03T07:52:46.865Z,1004.59
2018-06-03T07:53:46.876Z,1004.69
2018-06-03T07:54:46.872Z,1004.41
2018-06-03T07:55:46.861Z,1004.25
2018-06-03T07:56:46.846Z,1004.35
2018-06-03T07:57:46.860Z,1004.41
2018-06-03T07:58:46.882Z,1004.23
2018-06-03T07:59:46.873Z,1004.2
2018-06-03T08:00:46.899Z,1004.27
2018-06-03T08:01:46.866Z,1004.09
2018-06-03T08:02:46.908Z,1004.04
2018-06-03T08:03:46.937Z,1004
2018-06-03T08:04:46.897Z,1003.76
2018-06-03T08:05:46.912Z,1004.06
2018-06-03T08:06:46.911Z,1003.88
2018-06-03T08:07:46.936Z,1004.12
2018-06-03T08:08:46.929Z,1004.24
2018-06-03T08:09:46.918Z,1004.01
2018-06-03T08:10:46.911Z,1004.11
2018-06-03T08:11:46.922Z,1004.12
2018-06-03T08:12:46.919Z,1004.29
2018-06-03T08:13:46.994Z,1004.4
2018-06-03T08:14:46.914Z,1004.47
2018-06-03T08:15:47.579Z,1004.47
2018-06-03T08:16:46.948Z,1004.29
2018-06-03T08:17:46.938Z,1004.8
2018-06-03T08:18:46.914Z,1004.52
2018-06-03T08:19:46.924Z,1004.51
2018-06-03T08:20:46.954Z,1004.51
2018-06-03T08:21:46.932Z,1004.72
2018-06-03T08:22:46.946Z,1004.87
2018-06-03T08:23:46.981Z,1004.56
2018-06-03T08:24:46.952Z,1004.61
2018-06-03T08:25:46.929Z,1004.59
2018-06-03T08:26:46.966Z,1004.59
2018-06-03T08:27:46.928Z,1004.87
2018-06-03T08:28:46.913Z,1004.71
2018-06-03T08:29:46.959Z,1004.69
2018-06-03T08:30:46.938Z,1004.61
2018-06-03T08:31:46.948Z,1005.09
2018-06-03T08:32:46.937Z,1005.07
2018-06-03T08:33:46.942Z,1004.91
2018-06-03T08:34:46.987Z,1004.87
2018-06-03T08:35:46.963Z,1005.08
2018-06-03T08:36:46.946Z,1005.18
2018-06-03T08:37:46.921Z,1004.94
2018-06-03T08:38:46.935Z,1004.99
2018-06-03T08:39:46.935Z,1005.07
2018-06-03T08:40:46.930Z,1004.89
2018-06-03T08:41:46.979Z,1005.04
2018-06-03T08:42:47.015Z,1004.92
2018-06-03T08:43:46.972Z,1004.97
2018-06-03T08:44:46.958Z,1005.18
2018-06-03T08:45:48.014Z,1005.11
2018-06-03T08:46:46.952Z,1005.06
2018-06-03T08:47:46.941Z,1005.09
2018-06-03T08:48:46.977Z,1004.73
2018-06-03T08:49:47.002Z,1005.29
2018-06-03T08:50:46.952Z,1005.09
2018-06-03T08:51:47.004Z,1005.13
2018-06-03T08:52:46.987Z,1005.13
2018-06-03T08:53:47.017Z,1005.25
2018-06-03T08:54:46.991Z,1005.21
2018-06-03T08:55:46.985Z,1005.14
2018-06-03T08:56:46.996Z,1005.14
2018-06-03T08:57:46.953Z,1005.22
2018-06-03T08:58:46.959Z,1005.19
2018-06-03T08:59:46.999Z,1005.11
2018-06-03T09:00:46.975Z,1005.21
2018-06-03T09:01:46.977Z,1005.36
2018-06-03T09:02:46.985Z,1005.27
2018-06-03T09:03:47.004Z,1005.2
2018-06-03T09:04:46.984Z,1005.24
2018-06-03T09:05:46.987Z,1005.25
2018-06-03T09:06:47.034Z,1005.17
2018-06-03T09:07:46.993Z,1005.47
2018-06-03T09:08:46.976Z,1005.12
2018-06-03T09:09:47.007Z,1005.31
2018-06-03T09:10:46.983Z,1005.24
2018-06-03T09:11:47.018Z,1005.16
2018-06-03T09:12:47.023Z,1005.06
2018-06-03T09:13:47.003Z,1004.97
2018-06-03T09:14:47.018Z,1005.24
2018-06-03T09:15:47.015Z,1005.1
2018-06-03T09:18:05.610Z,1005.35
2018-06-03T09:19:05.562Z,1005.12
2018-06-03T09:20:05.559Z,1005.32
2018-06-03T09:21:05.589Z,1005.29
2018-06-03T09:22:05.545Z,1005.19
2018-06-03T09:24:23.696Z,1005.31
2018-06-03T09:25:23.744Z,1005.15
2018-06-03T09:26:23.682Z,1005.21
2018-06-03T09:27:23.764Z,1005.09
2018-06-03T09:28:23.668Z,1005.23
2018-06-03T09:29:23.715Z,1005.47
2018-06-03T09:30:23.733Z,1005.36
2018-06-03T09:31:23.708Z,1005.74
2018-06-03T09:35:51.346Z,1005.67
2018-06-03T09:36:51.378Z,1005.58
2018-06-03T09:37:51.388Z,1005.29
2018-06-03T09:38:51.356Z,1005.34
2018-06-03T09:39:51.387Z,1005.24
2018-06-03T09:40:51.373Z,1005.59
2018-06-03T09:41:51.440Z,1005.37
2018-06-03T09:42:51.367Z,1005.43
2018-06-03T09:43:51.372Z,1005.58
2018-06-03T09:44:51.386Z,1005.84
2018-06-03T09:45:51.416Z,1005.5
2018-06-03T09:46:51.408Z,1005.5
2018-06-03T09:47:51.425Z,1005.4
2018-06-03T09:48:51.422Z,1005.41
2018-06-03T09:49:51.410Z,1005.57
2018-06-03T09:50:51.388Z,1005.49
2018-06-03T09:51:51.465Z,1005.4
2018-06-03T09:52:51.435Z,1005.18
2018-06-03T09:53:51.412Z,1005.53
2018-06-03T09:54:51.392Z,1005.4
2018-06-03T09:55:51.423Z,1005.69
2018-06-03T09:56:51.411Z,1005.29
2018-06-03T09:57:51.389Z,1005.49
2018-06-03T09:58:51.393Z,1005.26
2018-06-03T09:59:51.938Z,1005.58
2018-06-03T10:00:51.436Z,1005.35
2018-06-03T10:01:51.407Z,1005.33
2018-06-03T10:02:51.445Z,1005.36
2018-06-03T10:03:51.463Z,1005.4
2018-06-03T10:04:51.431Z,1005.19
2018-06-03T10:05:51.416Z,1005.3
2018-06-03T10:06:51.439Z,1005.28
2018-06-03T10:07:51.459Z,1005.27
2018-06-03T10:08:51.436Z,1005.29
2018-06-03T10:09:51.438Z,1005.35
2018-06-03T10:10:51.449Z,1005.13
2018-06-03T10:11:51.445Z,1005.34
2018-06-03T10:12:51.458Z,1005.09
2018-06-03T10:13:51.421Z,1005.39
2018-06-03T10:14:51.472Z,1005.06
2018-06-03T10:15:51.484Z,1004.97
2018-06-03T10:16:51.470Z,1005.02
2018-06-03T10:17:51.467Z,1004.99
2018-06-03T10:18:51.449Z,1005.28
2018-06-03T10:19:51.456Z,1004.93
2018-06-03T10:20:51.461Z,1005.08
2018-06-03T10:21:51.466Z,1005.17
2018-06-03T10:22:51.496Z,1005.16
2018-06-03T10:23:51.479Z,1005.34
2018-06-03T10:24:51.451Z,1005
2018-06-03T10:25:51.469Z,1005.13
2018-06-03T10:26:51.472Z,1004.84
2018-06-03T10:27:51.437Z,1004.95
2018-06-03T10:28:51.434Z,1005.13
2018-06-03T10:29:51.492Z,1005.2
2018-06-03T10:30:51.445Z,1004.98
2018-06-03T10:31:51.438Z,1005
2018-06-03T10:32:51.440Z,1004.9
2018-06-03T10:33:51.518Z,1005.06
2018-06-03T10:34:51.437Z,1005.01
2018-06-03T10:35:51.539Z,1005.1
2018-06-03T10:36:51.508Z,1005.13
2018-06-03T10:37:51.491Z,1005.06
2018-06-03T10:38:51.475Z,1004.86
2018-06-03T10:39:52.415Z,1005.06
2018-06-03T10:40:51.511Z,1004.95
2018-06-03T10:41:51.500Z,1004.8
2018-06-03T10:42:51.486Z,1004.74
2018-06-03T10:43:51.490Z,1004.67
2018-06-03T10:44:51.515Z,1004.78
2018-06-03T10:45:51.468Z,1004.85
2018-06-03T10:46:51.499Z,1004.57
2018-06-03T10:47:51.535Z,1004.55
2018-06-03T10:50:10.411Z,1004.52
2018-06-03T10:51:10.422Z,1004.25
2018-06-03T10:52:10.404Z,1004.37
2018-06-03T10:53:10.414Z,1004.15
2018-06-03T10:54:10.422Z,1004.49
2018-06-03T10:55:10.405Z,1003.91
2018-06-03T10:56:10.431Z,1003.95
2018-06-03T10:57:10.404Z,1003.69
2018-06-03T10:58:10.391Z,1003.68
2018-06-03T10:59:10.433Z,1003.67
2018-06-03T11:00:10.435Z,1003.56
2018-06-03T11:01:10.366Z,1003.71
2018-06-03T11:02:10.376Z,1003.36
2018-06-03T11:03:10.409Z,1003.42
2018-06-03T11:04:10.413Z,1003.35
2018-06-03T11:05:10.433Z,1003.3
2018-06-03T11:06:10.413Z,1003.3
2018-06-03T11:07:10.426Z,1003.06
2018-06-03T11:08:10.430Z,1003.02
2018-06-03T11:09:10.413Z,1002.92
2018-06-03T11:10:10.392Z,1002.78
2018-06-03T11:11:10.426Z,1002.76
2018-06-03T11:12:10.400Z,1002.78
2018-06-03T11:13:10.406Z,1002.91
2018-06-03T11:14:10.420Z,1003.03
2018-06-03T11:15:10.439Z,1002.93
2018-06-03T11:16:10.428Z,1003.04
2018-06-03T11:17:10.473Z,1002.87
2018-06-03T11:18:10.418Z,1002.84
2018-06-03T11:19:10.409Z,1003.08
2018-06-03T11:20:10.488Z,1002.96
2018-06-03T11:21:10.501Z,1002.8
2018-06-03T11:22:10.443Z,1003.17
2018-06-03T11:23:10.460Z,1003.02
2018-06-03T11:24:10.457Z,1002.84
2018-06-03T11:25:10.442Z,1003.01
2018-06-03T11:26:10.427Z,1003.07
2018-06-03T11:27:10.447Z,1003.42
2018-06-03T11:28:10.438Z,1003.05
2018-06-03T11:29:10.480Z,1003.24
2018-06-03T11:30:10.440Z,1002.99
2018-06-03T11:31:10.524Z,1003.14
2018-06-03T11:32:10.449Z,1003
2018-06-03T11:33:10.447Z,1003.14
2018-06-03T11:34:10.442Z,1002.96
2018-06-03T11:35:10.448Z,1002.89
2018-06-03T11:36:11.114Z,1003.19
2018-06-03T11:37:10.460Z,1003.29
2018-06-03T11:38:10.455Z,1002.97
2018-06-03T11:39:10.484Z,1003.2
2018-06-03T11:40:10.463Z,1003.18
2018-06-03T11:41:10.464Z,1003.19
2018-06-03T11:42:10.465Z,1003.19
2018-06-03T11:43:10.461Z,1003.18
2018-06-03T11:44:10.477Z,1003.04
2018-06-03T11:45:10.455Z,1003.01
2018-06-03T11:46:10.455Z,1003.05
2018-06-03T11:47:10.483Z,1002.89
2018-06-03T11:48:10.623Z,1003.03
2018-06-03T11:49:10.481Z,1003.05
2018-06-03T11:50:10.483Z,1002.86
2018-06-03T11:51:10.499Z,1003.14
2018-06-03T11:52:10.500Z,1003.04
2018-06-03T11:53:10.481Z,1003.15
2018-06-03T11:54:10.472Z,1003.03
2018-06-03T11:55:10.490Z,1002.9
2018-06-03T11:56:10.503Z,1003.01
2018-06-03T11:57:10.484Z,1003.1
2018-06-03T11:58:10.459Z,1003.15
2018-06-03T11:59:10.550Z,1002.74
2018-06-03T12:00:10.522Z,1002.69
2018-06-03T12:01:10.540Z,1002.78
2018-06-03T12:02:10.462Z,1003.14
2018-06-03T12:03:10.486Z,1002.66
2018-06-03T12:04:10.497Z,1003.17
2018-06-03T12:05:10.489Z,1002.89
2018-06-03T12:06:10.500Z,1002.81
2018-06-03T12:07:10.505Z,1002.83
2018-06-03T12:08:10.576Z,1002.8
2018-06-03T12:09:10.539Z,1002.83
2018-06-03T12:10:10.541Z,1002.93
2018-06-03T12:11:10.524Z,1002.88
2018-06-03T12:12:10.523Z,1002.75
2018-06-03T12:13:10.516Z,1002.81
2018-06-03T12:14:10.520Z,1002.76
2018-06-03T12:15:10.541Z,1002.75
2018-06-03T12:16:10.515Z,1002.81
2018-06-03T12:17:10.558Z,1002.9
2018-06-03T12:18:10.534Z,1002.82
2018-06-03T12:19:10.532Z,1002.75
2018-06-03T12:20:10.554Z,1002.64
2018-06-03T12:21:10.668Z,1002.96
2018-06-03T12:22:10.539Z,1002.7
2018-06-03T12:23:10.530Z,1002.72
2018-06-03T12:24:10.580Z,1002.7
2018-06-03T12:25:10.516Z,1002.5
2018-06-03T12:26:10.555Z,1002.38
2018-06-03T12:27:11.389Z,1002.96
2018-06-03T12:28:10.556Z,1002.83